Main page
METAR-TAF:

METAR-TAF

Airports :

Malmen Airbase

Linköping, Sweden

latitude: 58-24N, longitude: 015-31E, elevation: 93 m

Current weather observation

The report was made 32 minutes ago, at 16:50 UTC
Wind 6 kt from the West
Temperature 22°C
Humidity 57%
Pressure 1012 hPa
Visibility 10 km or more

METAR: ESCF 231650Z AUTO 26006KT 9999 NCD 22/13 Q1012

Time: 19:22 (17:22 UTC)

Forecast

The report was made 8 hours and 57 minutes ago, at 08:25 UTC
Forecast valid from 23 at 09 UTC to 23 at 14 UTC
Wind 10 kt from the West
Scattered clouds at a height of 2500 ft

TAF: ESCF 230825Z 2309/2314 27010KT SCT025 RMK MIL

Weather observations and forecasts of more than 4000 airports (METAR and TAF reports).

The available stations are represented by yellow and red dots on the map.

Hover mouse over dot to see the name of the station.

Then click to see weather observations and forecasts.

To change the map : click on the green buttons with a black cross to zoom in, on the green button with a dash to zoom out, or on the green arrows for adjacent maps.


METAR-TAF: